sensor_id;sensor_type;location;lat;lon;timestamp;P1;durP1;ratioP1;P2;durP2;ratioP2
52718;SDS011;38616;42.140;24.760;2022-11-20T00:01:09;36.92;;;20.75;;
52718;SDS011;38616;42.140;24.760;2022-11-20T00:03:37;37.67;;;21.20;;
52718;SDS011;38616;42.140;24.760;2022-11-20T00:06:07;39.05;;;21.63;;
52718;SDS011;38616;42.140;24.760;2022-11-20T00:08:34;38.63;;;22.60;;
52718;SDS011;38616;42.140;24.760;2022-11-20T00:11:09;37.10;;;21.60;;
52718;SDS011;38616;42.140;24.760;2022-11-20T00:13:36;44.78;;;21.08;;
52718;SDS011;38616;42.140;24.760;2022-11-20T00:16:03;36.85;;;20.58;;
52718;SDS011;38616;42.140;24.760;2022-11-20T00:18:30;37.75;;;21.60;;
52718;SDS011;38616;42.140;24.760;2022-11-20T00:21:00;43.92;;;21.67;;
52718;SDS011;38616;42.140;24.760;2022-11-20T00:23:30;32.45;;;19.10;;
52718;SDS011;38616;42.140;24.760;2022-11-20T00:25:56;38.20;;;20.60;;
52718;SDS011;38616;42.140;24.760;2022-11-20T00:28:21;38.95;;;21.25;;
52718;SDS011;38616;42.140;24.760;2022-11-20T00:30:47;36.28;;;20.70;;
52718;SDS011;38616;42.140;24.760;2022-11-20T00:33:12;37.78;;;20.23;;
52718;SDS011;38616;42.140;24.760;2022-11-20T00:35:38;36.90;;;20.27;;
52718;SDS011;38616;42.140;24.760;2022-11-20T00:38:03;39.20;;;21.27;;
52718;SDS011;38616;42.140;24.760;2022-11-20T00:40:29;38.78;;;21.60;;
52718;SDS011;38616;42.140;24.760;2022-11-20T00:42:54;35.85;;;21.75;;
52718;SDS011;38616;42.140;24.760;2022-11-20T00:45:19;37.90;;;21.55;;
52718;SDS011;38616;42.140;24.760;2022-11-20T00:47:45;47.40;;;23.30;;
52718;SDS011;38616;42.140;24.760;2022-11-20T00:50:10;41.75;;;21.27;;
52718;SDS011;38616;42.140;24.760;2022-11-20T00:52:36;41.50;;;22.30;;
52718;SDS011;38616;42.140;24.760;2022-11-20T00:55:01;36.63;;;20.88;;
52718;SDS011;38616;42.140;24.760;2022-11-20T00:57:27;39.58;;;22.15;;
52718;SDS011;38616;42.140;24.760;2022-11-20T00:59:52;39.38;;;20.65;;
52718;SDS011;38616;42.140;24.760;2022-11-20T01:02:17;40.80;;;21.05;;
52718;SDS011;38616;42.140;24.760;2022-11-20T01:04:43;36.47;;;20.83;;
52718;SDS011;38616;42.140;24.760;2022-11-20T01:07:08;34.55;;;19.38;;
52718;SDS011;38616;42.140;24.760;2022-11-20T01:09:33;36.05;;;20.20;;
52718;SDS011;38616;42.140;24.760;2022-11-20T01:11:59;38.80;;;22.70;;
52718;SDS011;38616;42.140;24.760;2022-11-20T01:14:25;38.58;;;21.45;;
52718;SDS011;38616;42.140;24.760;2022-11-20T01:16:51;40.70;;;21.85;;
52718;SDS011;38616;42.140;24.760;2022-11-20T01:19:20;40.70;;;20.95;;
52718;SDS011;38616;42.140;24.760;2022-11-20T01:21:49;38.97;;;19.95;;
52718;SDS011;38616;42.140;24.760;2022-11-20T01:24:17;38.42;;;20.15;;
52718;SDS011;38616;42.140;24.760;2022-11-20T01:26:45;35.83;;;21.30;;
52718;SDS011;38616;42.140;24.760;2022-11-20T01:29:13;36.90;;;20.10;;
52718;SDS011;38616;42.140;24.760;2022-11-20T01:31:40;35.95;;;19.35;;
52718;SDS011;38616;42.140;24.760;2022-11-20T01:34:07;36.78;;;20.17;;
52718;SDS011;38616;42.140;24.760;2022-11-20T01:36:35;37.90;;;19.73;;
52718;SDS011;38616;42.140;24.760;2022-11-20T01:39:03;43.75;;;20.83;;
52718;SDS011;38616;42.140;24.760;2022-11-20T01:41:31;39.40;;;21.17;;
52718;SDS011;38616;42.140;24.760;2022-11-20T01:44:17;36.90;;;20.27;;
52718;SDS011;38616;42.140;24.760;2022-11-20T01:46:57;40.50;;;21.00;;
52718;SDS011;38616;42.140;24.760;2022-11-20T01:49:40;37.28;;;19.80;;
52718;SDS011;38616;42.140;24.760;2022-11-20T01:52:23;36.50;;;20.05;;
52718;SDS011;38616;42.140;24.760;2022-11-20T01:55:00;33.40;;;19.35;;
52718;SDS011;38616;42.140;24.760;2022-11-20T01:57:32;31.92;;;18.63;;
52718;SDS011;38616;42.140;24.760;2022-11-20T02:00:02;38.00;;;20.70;;
52718;SDS011;38616;42.140;24.760;2022-11-20T02:02:33;38.22;;;21.45;;
52718;SDS011;38616;42.140;24.760;2022-11-20T02:05:00;32.90;;;19.90;;
52718;SDS011;38616;42.140;24.760;2022-11-20T02:07:51;36.63;;;19.45;;
52718;SDS011;38616;42.140;24.760;2022-11-20T02:10:19;36.88;;;20.67;;
52718;SDS011;38616;42.140;24.760;2022-11-20T02:12:45;35.10;;;19.98;;
52718;SDS011;38616;42.140;24.760;2022-11-20T02:15:29;37.03;;;20.73;;
52718;SDS011;38616;42.140;24.760;2022-11-20T02:17:56;39.87;;;19.03;;
52718;SDS011;38616;42.140;24.760;2022-11-20T02:20:22;36.78;;;20.35;;
52718;SDS011;38616;42.140;24.760;2022-11-20T02:22:53;31.30;;;18.23;;
52718;SDS011;38616;42.140;24.760;2022-11-20T02:25:24;33.73;;;19.83;;
52718;SDS011;38616;42.140;24.760;2022-11-20T02:27:52;40.50;;;19.23;;
52718;SDS011;38616;42.140;24.760;2022-11-20T02:30:17;35.40;;;19.45;;
52718;SDS011;38616;42.140;24.760;2022-11-20T02:32:43;32.67;;;18.13;;
52718;SDS011;38616;42.140;24.760;2022-11-20T02:37:36;34.45;;;18.73;;
52718;SDS011;38616;42.140;24.760;2022-11-20T02:40:03;32.88;;;18.33;;
52718;SDS011;38616;42.140;24.760;2022-11-20T02:42:29;30.40;;;17.25;;
52718;SDS011;38616;42.140;24.760;2022-11-20T02:44:55;36.33;;;18.60;;
52718;SDS011;38616;42.140;24.760;2022-11-20T02:47:20;31.88;;;15.85;;
52718;SDS011;38616;42.140;24.760;2022-11-20T02:49:45;30.50;;;17.30;;
52718;SDS011;38616;42.140;24.760;2022-11-20T02:52:11;36.42;;;18.50;;
52718;SDS011;38616;42.140;24.760;2022-11-20T02:54:36;29.08;;;15.77;;
52718;SDS011;38616;42.140;24.760;2022-11-20T02:57:01;34.50;;;17.65;;
52718;SDS011;38616;42.140;24.760;2022-11-20T02:59:27;32.70;;;16.05;;
52718;SDS011;38616;42.140;24.760;2022-11-20T03:01:52;30.05;;;14.88;;
52718;SDS011;38616;42.140;24.760;2022-11-20T03:04:18;29.17;;;16.17;;
52718;SDS011;38616;42.140;24.760;2022-11-20T03:06:43;27.40;;;14.63;;
52718;SDS011;38616;42.140;24.760;2022-11-20T03:09:08;30.50;;;16.15;;
52718;SDS011;38616;42.140;24.760;2022-11-20T03:11:34;29.23;;;16.50;;
52718;SDS011;38616;42.140;24.760;2022-11-20T03:14:05;31.38;;;17.30;;
52718;SDS011;38616;42.140;24.760;2022-11-20T03:16:31;31.90;;;17.10;;
52718;SDS011;38616;42.140;24.760;2022-11-20T03:18:57;36.80;;;18.00;;
52718;SDS011;38616;42.140;24.760;2022-11-20T03:21:22;27.40;;;15.90;;
52718;SDS011;38616;42.140;24.760;2022-11-20T03:23:48;28.02;;;15.73;;
52718;SDS011;38616;42.140;24.760;2022-11-20T03:26:18;26.33;;;14.60;;
52718;SDS011;38616;42.140;24.760;2022-11-20T03:28:49;30.50;;;15.60;;
52718;SDS011;38616;42.140;24.760;2022-11-20T03:31:20;31.15;;;16.02;;
52718;SDS011;38616;42.140;24.760;2022-11-20T03:33:47;30.73;;;17.23;;
52718;SDS011;38616;42.140;24.760;2022-11-20T03:36:13;30.38;;;17.30;;
52718;SDS011;38616;42.140;24.760;2022-11-20T03:38:40;29.83;;;15.05;;
52718;SDS011;38616;42.140;24.760;2022-11-20T03:41:07;34.17;;;17.17;;
52718;SDS011;38616;42.140;24.760;2022-11-20T03:43:35;27.67;;;16.58;;
52718;SDS011;38616;42.140;24.760;2022-11-20T03:46:01;28.40;;;14.98;;
52718;SDS011;38616;42.140;24.760;2022-11-20T03:48:27;23.52;;;13.90;;
52718;SDS011;38616;42.140;24.760;2022-11-20T03:50:53;22.67;;;11.35;;
52718;SDS011;38616;42.140;24.760;2022-11-20T03:53:34;24.13;;;11.40;;
52718;SDS011;38616;42.140;24.760;2022-11-20T03:55:59;27.42;;;10.45;;
52718;SDS011;38616;42.140;24.760;2022-11-20T03:58:24;26.83;;;12.05;;
52718;SDS011;38616;42.140;24.760;2022-11-20T04:00:50;23.00;;;10.32;;
52718;SDS011;38616;42.140;24.760;2022-11-20T04:03:15;22.05;;;10.82;;
52718;SDS011;38616;42.140;24.760;2022-11-20T04:05:41;21.70;;;11.45;;
52718;SDS011;38616;42.140;24.760;2022-11-20T04:08:06;21.17;;;10.05;;
52718;SDS011;38616;42.140;24.760;2022-11-20T04:10:31;18.02;;;9.25;;
52718;SDS011;38616;42.140;24.760;2022-11-20T04:12:57;17.58;;;9.15;;
52718;SDS011;38616;42.140;24.760;2022-11-20T04:15:22;19.92;;;8.55;;
52718;SDS011;38616;42.140;24.760;2022-11-20T04:17:48;16.58;;;8.07;;
52718;SDS011;38616;42.140;24.760;2022-11-20T04:20:13;15.48;;;6.65;;
52718;SDS011;38616;42.140;24.760;2022-11-20T04:22:39;13.05;;;6.82;;
52718;SDS011;38616;42.140;24.760;2022-11-20T04:25:04;18.23;;;7.00;;
52718;SDS011;38616;42.140;24.760;2022-11-20T04:27:30;16.58;;;6.95;;
52718;SDS011;38616;42.140;24.760;2022-11-20T04:29:56;16.23;;;7.13;;
52718;SDS011;38616;42.140;24.760;2022-11-20T04:32:21;16.70;;;6.75;;
52718;SDS011;38616;42.140;24.760;2022-11-20T04:34:47;19.85;;;7.90;;
52718;SDS011;38616;42.140;24.760;2022-11-20T04:37:12;15.75;;;6.28;;
52718;SDS011;38616;42.140;24.760;2022-11-20T04:39:37;13.85;;;5.22;;
52718;SDS011;38616;42.140;24.760;2022-11-20T04:42:03;17.27;;;6.10;;
52718;SDS011;38616;42.140;24.760;2022-11-20T04:44:46;19.27;;;6.18;;
52718;SDS011;38616;42.140;24.760;2022-11-20T04:47:12;14.75;;;5.47;;
52718;SDS011;38616;42.140;24.760;2022-11-20T04:49:37;18.05;;;4.40;;
52718;SDS011;38616;42.140;24.760;2022-11-20T04:52:03;19.55;;;4.93;;
52718;SDS011;38616;42.140;24.760;2022-11-20T04:54:28;16.85;;;6.22;;
52718;SDS011;38616;42.140;24.760;2022-11-20T04:56:53;13.65;;;4.50;;
52718;SDS011;38616;42.140;24.760;2022-11-20T04:59:19;17.63;;;5.47;;
52718;SDS011;38616;42.140;24.760;2022-11-20T05:01:44;11.20;;;4.25;;
52718;SDS011;38616;42.140;24.760;2022-11-20T05:04:10;13.10;;;4.60;;
52718;SDS011;38616;42.140;24.760;2022-11-20T05:06:35;14.52;;;4.22;;
52718;SDS011;38616;42.140;24.760;2022-11-20T05:09:01;13.60;;;3.95;;
52718;SDS011;38616;42.140;24.760;2022-11-20T05:11:27;11.18;;;4.85;;
52718;SDS011;38616;42.140;24.760;2022-11-20T05:13:54;8.65;;;3.33;;
52718;SDS011;38616;42.140;24.760;2022-11-20T05:16:20;13.00;;;4.50;;
52718;SDS011;38616;42.140;24.760;2022-11-20T05:18:47;20.88;;;5.97;;
52718;SDS011;38616;42.140;24.760;2022-11-20T05:21:13;12.77;;;4.85;;
52718;SDS011;38616;42.140;24.760;2022-11-20T05:23:39;18.95;;;5.13;;
52718;SDS011;38616;42.140;24.760;2022-11-20T05:26:06;15.55;;;4.60;;
52718;SDS011;38616;42.140;24.760;2022-11-20T05:28:33;15.80;;;6.55;;
52718;SDS011;38616;42.140;24.760;2022-11-20T05:31:09;15.27;;;6.18;;
52718;SDS011;38616;42.140;24.760;2022-11-20T05:33:39;12.57;;;4.13;;
52718;SDS011;38616;42.140;24.760;2022-11-20T05:36:06;15.15;;;5.35;;
52718;SDS011;38616;42.140;24.760;2022-11-20T05:38:32;13.93;;;4.90;;
52718;SDS011;38616;42.140;24.760;2022-11-20T05:41:04;12.80;;;4.20;;
52718;SDS011;38616;42.140;24.760;2022-11-20T05:43:32;15.98;;;5.22;;
52718;SDS011;38616;42.140;24.760;2022-11-20T05:45:58;14.60;;;5.25;;
52718;SDS011;38616;42.140;24.760;2022-11-20T05:48:24;9.90;;;4.82;;
52718;SDS011;38616;42.140;24.760;2022-11-20T05:50:50;10.77;;;4.47;;
52718;SDS011;38616;42.140;24.760;2022-11-20T05:53:15;11.93;;;4.45;;
52718;SDS011;38616;42.140;24.760;2022-11-20T05:55:40;16.63;;;5.75;;
52718;SDS011;38616;42.140;24.760;2022-11-20T05:58:06;16.55;;;5.40;;
52718;SDS011;38616;42.140;24.760;2022-11-20T06:00:31;13.65;;;5.88;;
52718;SDS011;38616;42.140;24.760;2022-11-20T06:02:57;23.50;;;6.32;;
52718;SDS011;38616;42.140;24.760;2022-11-20T06:05:22;15.07;;;6.03;;
52718;SDS011;38616;42.140;24.760;2022-11-20T06:07:47;12.68;;;6.53;;
52718;SDS011;38616;42.140;24.760;2022-11-20T06:10:13;20.08;;;7.32;;
52718;SDS011;38616;42.140;24.760;2022-11-20T06:12:38;14.77;;;6.10;;
52718;SDS011;38616;42.140;24.760;2022-11-20T06:15:04;14.70;;;5.82;;
52718;SDS011;38616;42.140;24.760;2022-11-20T06:17:30;13.15;;;5.10;;
52718;SDS011;38616;42.140;24.760;2022-11-20T06:19:55;13.65;;;5.18;;
52718;SDS011;38616;42.140;24.760;2022-11-20T06:22:21;16.02;;;5.75;;
52718;SDS011;38616;42.140;24.760;2022-11-20T06:24:47;13.98;;;5.57;;
52718;SDS011;38616;42.140;24.760;2022-11-20T06:27:12;15.10;;;6.25;;
52718;SDS011;38616;42.140;24.760;2022-11-20T06:29:37;17.05;;;6.95;;
52718;SDS011;38616;42.140;24.760;2022-11-20T06:32:03;20.25;;;5.93;;
52718;SDS011;38616;42.140;24.760;2022-11-20T06:34:28;14.93;;;5.65;;
52718;SDS011;38616;42.140;24.760;2022-11-20T06:36:54;18.33;;;5.93;;
52718;SDS011;38616;42.140;24.760;2022-11-20T06:39:19;17.67;;;5.82;;
52718;SDS011;38616;42.140;24.760;2022-11-20T06:41:45;15.05;;;5.95;;
52718;SDS011;38616;42.140;24.760;2022-11-20T06:44:10;14.98;;;5.45;;
52718;SDS011;38616;42.140;24.760;2022-11-20T06:46:36;16.52;;;6.20;;
52718;SDS011;38616;42.140;24.760;2022-11-20T06:49:01;15.73;;;6.40;;
52718;SDS011;38616;42.140;24.760;2022-11-20T06:51:27;17.08;;;7.95;;
52718;SDS011;38616;42.140;24.760;2022-11-20T06:53:52;14.68;;;5.60;;
52718;SDS011;38616;42.140;24.760;2022-11-20T06:56:18;16.83;;;7.53;;
52718;SDS011;38616;42.140;24.760;2022-11-20T06:58:44;17.63;;;7.43;;
52718;SDS011;38616;42.140;24.760;2022-11-20T07:01:10;21.30;;;7.32;;
52718;SDS011;38616;42.140;24.760;2022-11-20T07:03:37;13.45;;;6.72;;
52718;SDS011;38616;42.140;24.760;2022-11-20T07:06:03;18.23;;;7.43;;
52718;SDS011;38616;42.140;24.760;2022-11-20T07:08:29;18.13;;;7.40;;
52718;SDS011;38616;42.140;24.760;2022-11-20T07:10:58;23.02;;;8.27;;
52718;SDS011;38616;42.140;24.760;2022-11-20T07:13:25;12.07;;;7.05;;
52718;SDS011;38616;42.140;24.760;2022-11-20T07:15:51;19.88;;;7.07;;
52718;SDS011;38616;42.140;24.760;2022-11-20T07:18:16;27.58;;;10.95;;
52718;SDS011;38616;42.140;24.760;2022-11-20T07:20:42;24.08;;;9.15;;
52718;SDS011;38616;42.140;24.760;2022-11-20T07:23:07;15.27;;;8.75;;
52718;SDS011;38616;42.140;24.760;2022-11-20T07:25:33;17.77;;;6.63;;
52718;SDS011;38616;42.140;24.760;2022-11-20T07:27:58;17.58;;;6.65;;
52718;SDS011;38616;42.140;24.760;2022-11-20T07:30:25;19.25;;;6.47;;
52718;SDS011;38616;42.140;24.760;2022-11-20T07:32:51;14.63;;;5.40;;
52718;SDS011;38616;42.140;24.760;2022-11-20T07:35:17;16.55;;;5.70;;
52718;SDS011;38616;42.140;24.760;2022-11-20T07:37:42;13.20;;;5.57;;
52718;SDS011;38616;42.140;24.760;2022-11-20T07:40:08;14.50;;;7.68;;
52718;SDS011;38616;42.140;24.760;2022-11-20T07:42:33;12.98;;;5.32;;
52718;SDS011;38616;42.140;24.760;2022-11-20T07:44:59;17.67;;;6.35;;
52718;SDS011;38616;42.140;24.760;2022-11-20T07:47:24;15.65;;;7.05;;
52718;SDS011;38616;42.140;24.760;2022-11-20T07:49:49;20.17;;;7.93;;
52718;SDS011;38616;42.140;24.760;2022-11-20T07:52:15;13.48;;;6.82;;
52718;SDS011;38616;42.140;24.760;2022-11-20T07:54:40;15.48;;;7.38;;
52718;SDS011;38616;42.140;24.760;2022-11-20T07:57:06;19.90;;;7.70;;
52718;SDS011;38616;42.140;24.760;2022-11-20T07:59:31;23.70;;;8.23;;
52718;SDS011;38616;42.140;24.760;2022-11-20T08:01:56;16.75;;;7.28;;
52718;SDS011;38616;42.140;24.760;2022-11-20T08:04:22;23.05;;;8.30;;
52718;SDS011;38616;42.140;24.760;2022-11-20T08:06:48;18.55;;;7.15;;
52718;SDS011;38616;42.140;24.760;2022-11-20T08:09:14;22.95;;;8.82;;
52718;SDS011;38616;42.140;24.760;2022-11-20T08:11:39;17.73;;;8.93;;
52718;SDS011;38616;42.140;24.760;2022-11-20T08:14:23;16.75;;;8.43;;
52718;SDS011;38616;42.140;24.760;2022-11-20T08:16:49;21.70;;;9.70;;
52718;SDS011;38616;42.140;24.760;2022-11-20T08:19:15;23.02;;;9.15;;
52718;SDS011;38616;42.140;24.760;2022-11-20T08:21:42;20.10;;;7.85;;
52718;SDS011;38616;42.140;24.760;2022-11-20T08:24:08;15.50;;;6.28;;
52718;SDS011;38616;42.140;24.760;2022-11-20T08:26:35;18.33;;;7.50;;
52718;SDS011;38616;42.140;24.760;2022-11-20T08:29:01;16.27;;;7.23;;
52718;SDS011;38616;42.140;24.760;2022-11-20T08:31:28;19.13;;;6.40;;
52718;SDS011;38616;42.140;24.760;2022-11-20T08:33:54;23.63;;;7.95;;
52718;SDS011;38616;42.140;24.760;2022-11-20T08:36:20;18.00;;;6.57;;
52718;SDS011;38616;42.140;24.760;2022-11-20T08:38:50;14.90;;;6.07;;
52718;SDS011;38616;42.140;24.760;2022-11-20T08:41:17;15.52;;;5.80;;
52718;SDS011;38616;42.140;24.760;2022-11-20T08:44:04;18.77;;;7.18;;
52718;SDS011;38616;42.140;24.760;2022-11-20T08:46:38;11.68;;;5.82;;
52718;SDS011;38616;42.140;24.760;2022-11-20T08:49:06;16.38;;;6.25;;
52718;SDS011;38616;42.140;24.760;2022-11-20T08:51:33;13.25;;;5.65;;
52718;SDS011;38616;42.140;24.760;2022-11-20T08:53:59;14.15;;;5.35;;
52718;SDS011;38616;42.140;24.760;2022-11-20T08:56:25;17.48;;;5.45;;
52718;SDS011;38616;42.140;24.760;2022-11-20T08:58:50;11.93;;;5.50;;
52718;SDS011;38616;42.140;24.760;2022-11-20T09:01:17;17.38;;;7.07;;
52718;SDS011;38616;42.140;24.760;2022-11-20T09:03:43;12.57;;;5.50;;
52718;SDS011;38616;42.140;24.760;2022-11-20T09:06:08;15.93;;;5.22;;
52718;SDS011;38616;42.140;24.760;2022-11-20T09:08:34;12.57;;;5.30;;
52718;SDS011;38616;42.140;24.760;2022-11-20T09:11:01;14.23;;;5.50;;
52718;SDS011;38616;42.140;24.760;2022-11-20T09:13:27;15.18;;;5.82;;
52718;SDS011;38616;42.140;24.760;2022-11-20T09:15:54;22.65;;;11.50;;
52718;SDS011;38616;42.140;24.760;2022-11-20T09:18:30;28.35;;;11.38;;
52718;SDS011;38616;42.140;24.760;2022-11-20T09:21:01;21.58;;;9.70;;
52718;SDS011;38616;42.140;24.760;2022-11-20T09:23:30;23.92;;;9.63;;
52718;SDS011;38616;42.140;24.760;2022-11-20T09:26:01;20.27;;;8.73;;
52718;SDS011;38616;42.140;24.760;2022-11-20T09:28:27;22.85;;;9.45;;
52718;SDS011;38616;42.140;24.760;2022-11-20T09:30:52;20.65;;;8.52;;
52718;SDS011;38616;42.140;24.760;2022-11-20T09:33:18;30.10;;;11.07;;
52718;SDS011;38616;42.140;24.760;2022-11-20T09:35:43;20.15;;;8.70;;
52718;SDS011;38616;42.140;24.760;2022-11-20T09:38:10;17.98;;;8.23;;
52718;SDS011;38616;42.140;24.760;2022-11-20T09:40:37;25.98;;;10.30;;
52718;SDS011;38616;42.140;24.760;2022-11-20T09:44:12;20.90;;;10.20;;
52718;SDS011;38616;42.140;24.760;2022-11-20T09:46:14;21.10;;;7.13;;
52718;SDS011;38616;42.140;24.760;2022-11-20T09:51:39;22.15;;;6.82;;
52718;SDS011;38616;42.140;24.760;2022-11-20T09:54:26;18.48;;;5.90;;
52718;SDS011;38616;42.140;24.760;2022-11-20T09:57:02;18.15;;;5.65;;
52718;SDS011;38616;42.140;24.760;2022-11-20T10:02:48;11.82;;;5.15;;
52718;SDS011;38616;42.140;24.760;2022-11-20T10:10:43;13.43;;;4.82;;
52718;SDS011;38616;42.140;24.760;2022-11-20T10:18:53;17.73;;;4.47;;
52718;SDS011;38616;42.140;24.760;2022-11-20T10:24:44;11.77;;;4.50;;
52718;SDS011;38616;42.140;24.760;2022-11-20T10:27:23;17.35;;;4.97;;
52718;SDS011;38616;42.140;24.760;2022-11-20T10:30:10;16.42;;;4.25;;
52718;SDS011;38616;42.140;24.760;2022-11-20T10:32:48;10.85;;;4.40;;
52718;SDS011;38616;42.140;24.760;2022-11-20T10:35:33;13.68;;;4.85;;
52718;SDS011;38616;42.140;24.760;2022-11-20T10:38:05;12.52;;;4.00;;
52718;SDS011;38616;42.140;24.760;2022-11-20T10:40:38;11.15;;;4.72;;
52718;SDS011;38616;42.140;24.760;2022-11-20T10:43:11;12.23;;;4.97;;
52718;SDS011;38616;42.140;24.760;2022-11-20T10:45:56;15.73;;;5.65;;
52718;SDS011;38616;42.140;24.760;2022-11-20T10:48:26;17.13;;;5.40;;
52718;SDS011;38616;42.140;24.760;2022-11-20T10:57:00;15.75;;;5.10;;
52718;SDS011;38616;42.140;24.760;2022-11-20T11:03:20;13.82;;;6.05;;
52718;SDS011;38616;42.140;24.760;2022-11-20T11:05:42;23.25;;;5.30;;
52718;SDS011;38616;42.140;24.760;2022-11-20T11:08:16;16.92;;;7.68;;
52718;SDS011;38616;42.140;24.760;2022-11-20T11:10:54;16.13;;;6.70;;
52718;SDS011;38616;42.140;24.760;2022-11-20T11:13:29;19.38;;;6.70;;
52718;SDS011;38616;42.140;24.760;2022-11-20T11:15:57;18.27;;;6.18;;
52718;SDS011;38616;42.140;24.760;2022-11-20T11:18:27;16.58;;;5.38;;
52718;SDS011;38616;42.140;24.760;2022-11-20T11:20:57;15.10;;;4.95;;
52718;SDS011;38616;42.140;24.760;2022-11-20T11:23:46;29.85;;;7.18;;
52718;SDS011;38616;42.140;24.760;2022-11-20T11:26:20;20.98;;;6.15;;
52718;SDS011;38616;42.140;24.760;2022-11-20T11:28:53;16.73;;;5.10;;
52718;SDS011;38616;42.140;24.760;2022-11-20T11:31:27;9.50;;;4.53;;
52718;SDS011;38616;42.140;24.760;2022-11-20T11:34:30;19.33;;;5.85;;
52718;SDS011;38616;42.140;24.760;2022-11-20T11:36:58;17.60;;;5.68;;
52718;SDS011;38616;42.140;24.760;2022-11-20T11:39:26;16.55;;;5.70;;
52718;SDS011;38616;42.140;24.760;2022-11-20T11:41:53;18.73;;;6.68;;
52718;SDS011;38616;42.140;24.760;2022-11-20T11:44:20;14.15;;;5.38;;
52718;SDS011;38616;42.140;24.760;2022-11-20T11:47:11;12.93;;;5.25;;
52718;SDS011;38616;42.140;24.760;2022-11-20T11:50:26;16.58;;;4.90;;
52718;SDS011;38616;42.140;24.760;2022-11-20T11:57:51;17.65;;;4.82;;
52718;SDS011;38616;42.140;24.760;2022-11-20T12:00:31;14.70;;;5.00;;
52718;SDS011;38616;42.140;24.760;2022-11-20T12:11:34;15.13;;;4.40;;
52718;SDS011;38616;42.140;24.760;2022-11-20T12:14:16;13.52;;;4.40;;
52718;SDS011;38616;42.140;24.760;2022-11-20T12:16:48;15.60;;;5.03;;
52718;SDS011;38616;42.140;24.760;2022-11-20T12:19:16;13.07;;;4.37;;
52718;SDS011;38616;42.140;24.760;2022-11-20T12:27:42;19.20;;;5.10;;
52718;SDS011;38616;42.140;24.760;2022-11-20T12:30:16;18.05;;;4.70;;
52718;SDS011;38616;42.140;24.760;2022-11-20T12:50:26;17.27;;;4.75;;
52718;SDS011;38616;42.140;24.760;2022-11-20T12:53:06;17.25;;;4.82;;
52718;SDS011;38616;42.140;24.760;2022-11-20T13:04:23;17.33;;;3.03;;
52718;SDS011;38616;42.140;24.760;2022-11-20T13:06:52;16.83;;;4.07;;
52718;SDS011;38616;42.140;24.760;2022-11-20T13:09:19;19.83;;;5.53;;
52718;SDS011;38616;42.140;24.760;2022-11-20T13:12:07;17.42;;;4.95;;
52718;SDS011;38616;42.140;24.760;2022-11-20T13:19:53;14.85;;;3.88;;
52718;SDS011;38616;42.140;24.760;2022-11-20T13:22:28;18.35;;;3.70;;
52718;SDS011;38616;42.140;24.760;2022-11-20T13:25:08;17.88;;;4.75;;
52718;SDS011;38616;42.140;24.760;2022-11-20T13:27:35;16.88;;;4.25;;
52718;SDS011;38616;42.140;24.760;2022-11-20T13:30:02;16.58;;;4.53;;
52718;SDS011;38616;42.140;24.760;2022-11-20T13:32:55;13.57;;;2.88;;
52718;SDS011;38616;42.140;24.760;2022-11-20T13:35:41;18.13;;;2.90;;
52718;SDS011;38616;42.140;24.760;2022-11-20T13:38:11;14.60;;;3.10;;
52718;SDS011;38616;42.140;24.760;2022-11-20T13:40:55;18.83;;;3.28;;
52718;SDS011;38616;42.140;24.760;2022-11-20T13:43:34;18.25;;;3.58;;
52718;SDS011;38616;42.140;24.760;2022-11-20T13:46:03;19.40;;;4.00;;
52718;SDS011;38616;42.140;24.760;2022-11-20T13:48:31;13.60;;;3.67;;
52718;SDS011;38616;42.140;24.760;2022-11-20T13:53:48;15.18;;;3.05;;
52718;SDS011;38616;42.140;24.760;2022-11-20T14:02:19;12.73;;;2.40;;
52718;SDS011;38616;42.140;24.760;2022-11-20T14:07:16;14.52;;;2.10;;
52718;SDS011;38616;42.140;24.760;2022-11-20T14:09:54;8.30;;;2.95;;
52718;SDS011;38616;42.140;24.760;2022-11-20T14:12:22;10.77;;;1.70;;
52718;SDS011;38616;42.140;24.760;2022-11-20T14:14:53;5.75;;;1.83;;
52718;SDS011;38616;42.140;24.760;2022-11-20T14:19:48;5.00;;;0.90;;
52718;SDS011;38616;42.140;24.760;2022-11-20T14:24:48;2.40;;;0.90;;
52718;SDS011;38616;42.140;24.760;2022-11-20T14:27:25;2.28;;;0.80;;
52718;SDS011;38616;42.140;24.760;2022-11-20T14:29:51;3.15;;;0.90;;
52718;SDS011;38616;42.140;24.760;2022-11-20T14:32:17;1.45;;;0.63;;
52718;SDS011;38616;42.140;24.760;2022-11-20T14:37:13;4.57;;;0.90;;
52718;SDS011;38616;42.140;24.760;2022-11-20T14:39:49;3.30;;;0.68;;
52718;SDS011;38616;42.140;24.760;2022-11-20T14:42:20;1.38;;;1.00;;
52718;SDS011;38616;42.140;24.760;2022-11-20T14:44:47;5.32;;;1.40;;
52718;SDS011;38616;42.140;24.760;2022-11-20T14:47:16;4.45;;;1.00;;
52718;SDS011;38616;42.140;24.760;2022-11-20T14:49:44;3.60;;;0.95;;
52718;SDS011;38616;42.140;24.760;2022-11-20T14:52:17;5.40;;;1.10;;
52718;SDS011;38616;42.140;24.760;2022-11-20T14:54:51;4.25;;;1.08;;
52718;SDS011;38616;42.140;24.760;2022-11-20T14:59:48;1.98;;;1.00;;
52718;SDS011;38616;42.140;24.760;2022-11-20T15:02:14;4.68;;;1.13;;
52718;SDS011;38616;42.140;24.760;2022-11-20T15:04:46;5.47;;;1.40;;
52718;SDS011;38616;42.140;24.760;2022-11-20T15:07:34;6.47;;;1.77;;
52718;SDS011;38616;42.140;24.760;2022-11-20T15:10:03;5.95;;;1.42;;
52718;SDS011;38616;42.140;24.760;2022-11-20T15:12:29;6.43;;;1.63;;
52718;SDS011;38616;42.140;24.760;2022-11-20T15:15:10;3.85;;;1.58;;
52718;SDS011;38616;42.140;24.760;2022-11-20T15:17:39;8.50;;;4.13;;
52718;SDS011;38616;42.140;24.760;2022-11-20T15:20:09;8.63;;;3.97;;
52718;SDS011;38616;42.140;24.760;2022-11-20T15:22:38;8.55;;;3.85;;
52718;SDS011;38616;42.140;24.760;2022-11-20T15:25:22;7.32;;;2.55;;
52718;SDS011;38616;42.140;24.760;2022-11-20T15:27:50;6.67;;;3.33;;
52718;SDS011;38616;42.140;24.760;2022-11-20T15:30:20;9.25;;;2.65;;
52718;SDS011;38616;42.140;24.760;2022-11-20T15:32:46;8.02;;;3.25;;
52718;SDS011;38616;42.140;24.760;2022-11-20T15:35:12;5.30;;;2.55;;
52718;SDS011;38616;42.140;24.760;2022-11-20T15:37:38;5.85;;;2.97;;
52718;SDS011;38616;42.140;24.760;2022-11-20T15:40:05;21.50;;;3.47;;
52718;SDS011;38616;42.140;24.760;2022-11-20T15:42:31;5.88;;;2.45;;
52718;SDS011;38616;42.140;24.760;2022-11-20T15:44:57;4.85;;;2.20;;
52718;SDS011;38616;42.140;24.760;2022-11-20T15:47:24;15.05;;;4.60;;
52718;SDS011;38616;42.140;24.760;2022-11-20T15:49:52;10.52;;;3.63;;
52718;SDS011;38616;42.140;24.760;2022-11-20T15:52:17;10.02;;;4.25;;
52718;SDS011;38616;42.140;24.760;2022-11-20T15:54:43;10.32;;;4.05;;
52718;SDS011;38616;42.140;24.760;2022-11-20T15:57:08;13.73;;;4.00;;
52718;SDS011;38616;42.140;24.760;2022-11-20T15:59:34;10.73;;;2.83;;
52718;SDS011;38616;42.140;24.760;2022-11-20T16:02:02;4.75;;;2.22;;
52718;SDS011;38616;42.140;24.760;2022-11-20T16:04:27;3.92;;;2.10;;
52718;SDS011;38616;42.140;24.760;2022-11-20T16:06:53;5.45;;;1.40;;
52718;SDS011;38616;42.140;24.760;2022-11-20T16:09:18;9.95;;;2.42;;
52718;SDS011;38616;42.140;24.760;2022-11-20T16:11:43;6.75;;;1.80;;
52718;SDS011;38616;42.140;24.760;2022-11-20T16:14:09;6.18;;;2.28;;